sensor_id;sensor_type;location;lat;lon;timestamp;P1;durP1;ratioP1;P2;durP2;ratioP2
793;SDS011;380;48.738;9.214;2023-05-15T00:01:49;3.80;;;2.97;;
793;SDS011;380;48.738;9.214;2023-05-15T00:04:15;3.63;;;2.38;;
793;SDS011;380;48.738;9.214;2023-05-15T00:06:41;3.78;;;2.53;;
793;SDS011;380;48.738;9.214;2023-05-15T00:09:07;3.80;;;2.53;;
793;SDS011;380;48.738;9.214;2023-05-15T00:11:33;3.33;;;2.50;;
793;SDS011;380;48.738;9.214;2023-05-15T00:13:59;5.70;;;3.08;;
793;SDS011;380;48.738;9.214;2023-05-15T00:16:25;2.97;;;2.38;;
793;SDS011;380;48.738;9.214;2023-05-15T00:18:50;4.47;;;2.55;;
793;SDS011;380;48.738;9.214;2023-05-15T00:21:16;4.13;;;2.85;;
793;SDS011;380;48.738;9.214;2023-05-15T00:23:42;3.40;;;2.50;;
793;SDS011;380;48.738;9.214;2023-05-15T00:26:08;4.00;;;2.97;;
793;SDS011;380;48.738;9.214;2023-05-15T00:28:34;3.20;;;2.75;;
793;SDS011;380;48.738;9.214;2023-05-15T00:31:00;3.05;;;2.42;;
793;SDS011;380;48.738;9.214;2023-05-15T00:33:26;5.70;;;3.38;;
793;SDS011;380;48.738;9.214;2023-05-15T00:35:52;3.47;;;2.75;;
793;SDS011;380;48.738;9.214;2023-05-15T00:38:18;3.38;;;2.60;;
793;SDS011;380;48.738;9.214;2023-05-15T00:40:44;3.85;;;2.70;;
793;SDS011;380;48.738;9.214;2023-05-15T00:43:10;2.80;;;2.17;;
793;SDS011;380;48.738;9.214;2023-05-15T00:45:38;3.22;;;2.13;;
793;SDS011;380;48.738;9.214;2023-05-15T00:48:06;3.05;;;2.40;;
793;SDS011;380;48.738;9.214;2023-05-15T00:50:32;2.92;;;2.25;;
793;SDS011;380;48.738;9.214;2023-05-15T00:52:59;3.63;;;2.53;;
793;SDS011;380;48.738;9.214;2023-05-15T00:55:25;3.58;;;2.05;;
793;SDS011;380;48.738;9.214;2023-05-15T00:57:53;2.63;;;2.20;;
793;SDS011;380;48.738;9.214;2023-05-15T01:00:20;4.13;;;2.72;;
793;SDS011;380;48.738;9.214;2023-05-15T01:02:46;3.42;;;2.45;;
793;SDS011;380;48.738;9.214;2023-05-15T01:05:12;3.80;;;2.70;;
793;SDS011;380;48.738;9.214;2023-05-15T01:07:39;3.03;;;2.45;;
793;SDS011;380;48.738;9.214;2023-05-15T01:10:08;5.55;;;2.95;;
793;SDS011;380;48.738;9.214;2023-05-15T01:12:34;3.83;;;2.65;;
793;SDS011;380;48.738;9.214;2023-05-15T01:15:01;3.85;;;2.67;;
793;SDS011;380;48.738;9.214;2023-05-15T01:17:27;3.72;;;2.60;;
793;SDS011;380;48.738;9.214;2023-05-15T01:19:53;3.85;;;3.00;;
793;SDS011;380;48.738;9.214;2023-05-15T01:27:38;2.72;;;1.88;;
793;SDS011;380;48.738;9.214;2023-05-15T01:30:17;4.03;;;2.78;;
793;SDS011;380;48.738;9.214;2023-05-15T01:32:46;3.70;;;2.95;;
793;SDS011;380;48.738;9.214;2023-05-15T01:35:17;3.60;;;2.85;;
793;SDS011;380;48.738;9.214;2023-05-15T01:37:47;3.72;;;2.33;;
793;SDS011;380;48.738;9.214;2023-05-15T01:40:14;3.05;;;2.47;;
793;SDS011;380;48.738;9.214;2023-05-15T01:42:41;3.00;;;2.50;;
793;SDS011;380;48.738;9.214;2023-05-15T01:45:09;3.17;;;2.35;;
793;SDS011;380;48.738;9.214;2023-05-15T01:47:54;3.83;;;2.40;;
793;SDS011;380;48.738;9.214;2023-05-15T01:50:20;3.75;;;2.60;;
793;SDS011;380;48.738;9.214;2023-05-15T01:52:47;2.80;;;1.70;;
793;SDS011;380;48.738;9.214;2023-05-15T01:55:14;2.50;;;1.77;;
793;SDS011;380;48.738;9.214;2023-05-15T01:57:40;3.28;;;2.33;;
793;SDS011;380;48.738;9.214;2023-05-15T02:00:07;3.15;;;2.35;;
793;SDS011;380;48.738;9.214;2023-05-15T02:02:35;4.85;;;2.08;;
793;SDS011;380;48.738;9.214;2023-05-15T02:05:01;3.38;;;2.58;;
793;SDS011;380;48.738;9.214;2023-05-15T02:07:28;3.28;;;2.40;;
793;SDS011;380;48.738;9.214;2023-05-15T02:09:54;2.72;;;1.90;;
793;SDS011;380;48.738;9.214;2023-05-15T02:12:20;3.08;;;1.88;;
793;SDS011;380;48.738;9.214;2023-05-15T02:14:47;3.90;;;2.03;;
793;SDS011;380;48.738;9.214;2023-05-15T02:17:13;4.40;;;2.05;;
793;SDS011;380;48.738;9.214;2023-05-15T02:19:40;4.25;;;2.83;;
793;SDS011;380;48.738;9.214;2023-05-15T02:22:06;3.30;;;2.00;;
793;SDS011;380;48.738;9.214;2023-05-15T02:24:32;4.65;;;2.20;;
793;SDS011;380;48.738;9.214;2023-05-15T02:27:17;2.67;;;1.80;;
793;SDS011;380;48.738;9.214;2023-05-15T02:32:17;3.00;;;1.90;;
793;SDS011;380;48.738;9.214;2023-05-15T02:35:00;3.25;;;1.88;;
793;SDS011;380;48.738;9.214;2023-05-15T02:37:30;2.70;;;2.15;;
793;SDS011;380;48.738;9.214;2023-05-15T02:39:56;3.40;;;2.15;;
793;SDS011;380;48.738;9.214;2023-05-15T02:42:24;3.92;;;2.60;;
793;SDS011;380;48.738;9.214;2023-05-15T02:44:51;2.65;;;1.77;;
793;SDS011;380;48.738;9.214;2023-05-15T02:47:18;3.65;;;2.65;;
793;SDS011;380;48.738;9.214;2023-05-15T02:49:44;3.03;;;2.00;;
793;SDS011;380;48.738;9.214;2023-05-15T02:52:11;2.67;;;2.25;;
793;SDS011;380;48.738;9.214;2023-05-15T02:54:37;2.58;;;1.98;;
793;SDS011;380;48.738;9.214;2023-05-15T02:57:03;2.78;;;1.85;;
793;SDS011;380;48.738;9.214;2023-05-15T02:59:29;3.38;;;2.25;;
793;SDS011;380;48.738;9.214;2023-05-15T03:01:55;3.25;;;2.17;;
793;SDS011;380;48.738;9.214;2023-05-15T03:04:21;3.03;;;2.00;;
793;SDS011;380;48.738;9.214;2023-05-15T03:06:46;3.60;;;2.38;;
793;SDS011;380;48.738;9.214;2023-05-15T03:09:13;3.20;;;2.40;;
793;SDS011;380;48.738;9.214;2023-05-15T03:11:38;3.92;;;2.42;;
793;SDS011;380;48.738;9.214;2023-05-15T03:14:04;3.47;;;2.65;;
793;SDS011;380;48.738;9.214;2023-05-15T03:16:30;5.88;;;2.50;;
793;SDS011;380;48.738;9.214;2023-05-15T03:18:56;3.08;;;2.05;;
793;SDS011;380;48.738;9.214;2023-05-15T03:21:22;3.30;;;2.25;;
793;SDS011;380;48.738;9.214;2023-05-15T03:23:48;2.72;;;1.92;;
793;SDS011;380;48.738;9.214;2023-05-15T03:26:14;4.40;;;3.10;;
793;SDS011;380;48.738;9.214;2023-05-15T03:28:40;3.38;;;1.98;;
793;SDS011;380;48.738;9.214;2023-05-15T03:31:06;3.90;;;2.25;;
793;SDS011;380;48.738;9.214;2023-05-15T03:33:33;3.42;;;2.45;;
793;SDS011;380;48.738;9.214;2023-05-15T03:35:59;3.60;;;2.70;;
793;SDS011;380;48.738;9.214;2023-05-15T03:38:25;4.20;;;2.55;;
793;SDS011;380;48.738;9.214;2023-05-15T03:40:51;3.33;;;2.40;;
793;SDS011;380;48.738;9.214;2023-05-15T03:43:16;2.80;;;1.92;;
793;SDS011;380;48.738;9.214;2023-05-15T03:45:42;3.28;;;2.40;;
793;SDS011;380;48.738;9.214;2023-05-15T03:48:08;3.17;;;2.42;;
793;SDS011;380;48.738;9.214;2023-05-15T03:50:34;3.92;;;2.60;;
793;SDS011;380;48.738;9.214;2023-05-15T03:53:00;3.45;;;2.72;;
793;SDS011;380;48.738;9.214;2023-05-15T03:55:26;3.45;;;2.67;;
793;SDS011;380;48.738;9.214;2023-05-15T03:57:52;2.70;;;2.28;;
793;SDS011;380;48.738;9.214;2023-05-15T04:00:18;3.42;;;2.90;;
793;SDS011;380;48.738;9.214;2023-05-15T04:02:44;4.03;;;3.08;;
793;SDS011;380;48.738;9.214;2023-05-15T04:05:10;3.88;;;3.08;;
793;SDS011;380;48.738;9.214;2023-05-15T04:07:36;4.40;;;3.50;;
793;SDS011;380;48.738;9.214;2023-05-15T04:10:03;3.67;;;2.70;;
793;SDS011;380;48.738;9.214;2023-05-15T04:12:30;4.43;;;2.72;;
793;SDS011;380;48.738;9.214;2023-05-15T04:17:38;3.85;;;2.83;;
793;SDS011;380;48.738;9.214;2023-05-15T04:20:04;4.43;;;3.13;;
793;SDS011;380;48.738;9.214;2023-05-15T04:22:30;3.42;;;2.78;;
793;SDS011;380;48.738;9.214;2023-05-15T04:24:56;4.13;;;2.67;;
793;SDS011;380;48.738;9.214;2023-05-15T04:27:22;8.95;;;3.58;;
793;SDS011;380;48.738;9.214;2023-05-15T04:29:48;3.10;;;2.45;;
793;SDS011;380;48.738;9.214;2023-05-15T04:32:14;3.83;;;3.42;;
793;SDS011;380;48.738;9.214;2023-05-15T04:34:40;4.85;;;3.17;;
793;SDS011;380;48.738;9.214;2023-05-15T04:37:06;4.35;;;3.25;;
793;SDS011;380;48.738;9.214;2023-05-15T04:39:32;4.20;;;3.22;;
793;SDS011;380;48.738;9.214;2023-05-15T04:41:58;3.53;;;3.00;;
793;SDS011;380;48.738;9.214;2023-05-15T04:44:24;4.25;;;3.50;;
793;SDS011;380;48.738;9.214;2023-05-15T04:46:50;4.43;;;3.40;;
793;SDS011;380;48.738;9.214;2023-05-15T04:49:16;4.10;;;3.67;;
793;SDS011;380;48.738;9.214;2023-05-15T04:51:42;4.00;;;2.80;;
793;SDS011;380;48.738;9.214;2023-05-15T04:54:08;7.05;;;3.72;;
793;SDS011;380;48.738;9.214;2023-05-15T04:56:34;4.28;;;3.75;;
793;SDS011;380;48.738;9.214;2023-05-15T04:59:00;4.20;;;3.45;;
793;SDS011;380;48.738;9.214;2023-05-15T05:01:26;5.00;;;3.78;;
793;SDS011;380;48.738;9.214;2023-05-15T05:03:52;4.50;;;3.78;;
793;SDS011;380;48.738;9.214;2023-05-15T05:06:18;5.22;;;3.72;;
793;SDS011;380;48.738;9.214;2023-05-15T05:08:44;3.95;;;3.40;;
793;SDS011;380;48.738;9.214;2023-05-15T05:11:10;3.80;;;2.92;;
793;SDS011;380;48.738;9.214;2023-05-15T05:13:36;3.65;;;3.15;;
793;SDS011;380;48.738;9.214;2023-05-15T05:16:02;4.03;;;3.25;;
793;SDS011;380;48.738;9.214;2023-05-15T05:18:29;5.68;;;4.45;;
793;SDS011;380;48.738;9.214;2023-05-15T05:21:01;4.38;;;3.60;;
793;SDS011;380;48.738;9.214;2023-05-15T05:23:28;4.05;;;3.55;;
793;SDS011;380;48.738;9.214;2023-05-15T05:25:54;4.40;;;3.95;;
793;SDS011;380;48.738;9.214;2023-05-15T05:28:20;4.18;;;3.50;;
793;SDS011;380;48.738;9.214;2023-05-15T05:30:46;4.10;;;3.60;;
793;SDS011;380;48.738;9.214;2023-05-15T05:33:12;4.70;;;3.85;;
793;SDS011;380;48.738;9.214;2023-05-15T05:35:38;3.97;;;3.30;;
793;SDS011;380;48.738;9.214;2023-05-15T05:38:04;3.88;;;3.47;;
793;SDS011;380;48.738;9.214;2023-05-15T05:40:30;4.15;;;3.60;;
793;SDS011;380;48.738;9.214;2023-05-15T05:42:59;4.35;;;3.60;;
793;SDS011;380;48.738;9.214;2023-05-15T05:45:26;3.92;;;3.35;;
793;SDS011;380;48.738;9.214;2023-05-15T05:47:52;4.00;;;3.33;;
793;SDS011;380;48.738;9.214;2023-05-15T05:50:18;4.82;;;4.30;;
793;SDS011;380;48.738;9.214;2023-05-15T05:52:44;7.03;;;4.68;;
793;SDS011;380;48.738;9.214;2023-05-15T05:55:09;5.32;;;4.43;;
793;SDS011;380;48.738;9.214;2023-05-15T05:57:35;4.43;;;3.22;;
793;SDS011;380;48.738;9.214;2023-05-15T06:00:02;6.30;;;5.63;;
793;SDS011;380;48.738;9.214;2023-05-15T06:02:31;4.88;;;4.35;;
793;SDS011;380;48.738;9.214;2023-05-15T06:04:57;4.43;;;3.67;;
793;SDS011;380;48.738;9.214;2023-05-15T06:07:23;5.47;;;4.07;;
793;SDS011;380;48.738;9.214;2023-05-15T06:09:49;4.80;;;4.30;;
793;SDS011;380;48.738;9.214;2023-05-15T06:12:15;6.68;;;4.38;;
793;SDS011;380;48.738;9.214;2023-05-15T06:14:41;6.22;;;4.65;;
793;SDS011;380;48.738;9.214;2023-05-15T06:17:07;5.20;;;4.70;;
793;SDS011;380;48.738;9.214;2023-05-15T06:19:33;6.18;;;5.32;;
793;SDS011;380;48.738;9.214;2023-05-15T06:21:59;7.07;;;5.30;;
793;SDS011;380;48.738;9.214;2023-05-15T06:24:25;6.22;;;5.63;;
793;SDS011;380;48.738;9.214;2023-05-15T06:26:51;6.47;;;4.93;;
793;SDS011;380;48.738;9.214;2023-05-15T06:29:17;5.85;;;5.25;;
793;SDS011;380;48.738;9.214;2023-05-15T06:31:43;5.68;;;5.07;;
793;SDS011;380;48.738;9.214;2023-05-15T06:34:09;4.53;;;4.05;;
793;SDS011;380;48.738;9.214;2023-05-15T06:36:35;5.93;;;4.47;;
793;SDS011;380;48.738;9.214;2023-05-15T06:39:01;5.30;;;4.60;;
793;SDS011;380;48.738;9.214;2023-05-15T06:41:27;5.28;;;4.75;;
793;SDS011;380;48.738;9.214;2023-05-15T06:43:53;6.22;;;4.63;;
793;SDS011;380;48.738;9.214;2023-05-15T06:46:19;4.20;;;3.80;;
793;SDS011;380;48.738;9.214;2023-05-15T06:48:46;3.88;;;3.47;;
793;SDS011;380;48.738;9.214;2023-05-15T06:51:12;5.35;;;4.38;;
793;SDS011;380;48.738;9.214;2023-05-15T06:53:39;3.95;;;3.42;;
793;SDS011;380;48.738;9.214;2023-05-15T06:56:05;7.45;;;4.15;;
793;SDS011;380;48.738;9.214;2023-05-15T06:58:31;5.47;;;4.70;;
793;SDS011;380;48.738;9.214;2023-05-15T07:00:57;6.53;;;4.70;;
793;SDS011;380;48.738;9.214;2023-05-15T07:03:23;7.72;;;4.40;;
793;SDS011;380;48.738;9.214;2023-05-15T07:05:49;4.38;;;3.97;;
793;SDS011;380;48.738;9.214;2023-05-15T07:08:16;4.85;;;3.92;;
793;SDS011;380;48.738;9.214;2023-05-15T07:10:42;5.60;;;4.60;;
793;SDS011;380;48.738;9.214;2023-05-15T07:13:07;4.20;;;3.65;;
793;SDS011;380;48.738;9.214;2023-05-15T07:15:33;4.93;;;4.32;;
793;SDS011;380;48.738;9.214;2023-05-15T07:17:59;4.07;;;3.65;;
793;SDS011;380;48.738;9.214;2023-05-15T07:20:25;4.00;;;3.25;;
793;SDS011;380;48.738;9.214;2023-05-15T07:22:51;4.10;;;3.38;;
793;SDS011;380;48.738;9.214;2023-05-15T07:25:17;3.38;;;2.95;;
793;SDS011;380;48.738;9.214;2023-05-15T07:27:43;3.95;;;3.20;;
793;SDS011;380;48.738;9.214;2023-05-15T07:30:09;3.97;;;3.13;;
793;SDS011;380;48.738;9.214;2023-05-15T07:32:35;3.47;;;3.17;;
793;SDS011;380;48.738;9.214;2023-05-15T07:35:02;3.70;;;3.20;;
793;SDS011;380;48.738;9.214;2023-05-15T07:37:28;4.57;;;3.60;;
793;SDS011;380;48.738;9.214;2023-05-15T07:39:54;4.43;;;3.30;;
793;SDS011;380;48.738;9.214;2023-05-15T07:42:21;6.80;;;3.33;;
793;SDS011;380;48.738;9.214;2023-05-15T07:44:47;4.38;;;2.60;;
793;SDS011;380;48.738;9.214;2023-05-15T07:47:13;4.22;;;3.53;;
793;SDS011;380;48.738;9.214;2023-05-15T07:49:39;4.20;;;3.20;;
793;SDS011;380;48.738;9.214;2023-05-15T07:52:05;3.90;;;3.22;;
793;SDS011;380;48.738;9.214;2023-05-15T07:54:31;4.03;;;2.63;;
793;SDS011;380;48.738;9.214;2023-05-15T07:56:57;3.60;;;2.85;;
793;SDS011;380;48.738;9.214;2023-05-15T07:59:23;3.55;;;2.95;;
793;SDS011;380;48.738;9.214;2023-05-15T08:01:49;3.65;;;2.55;;
793;SDS011;380;48.738;9.214;2023-05-15T08:04:15;3.80;;;2.45;;
793;SDS011;380;48.738;9.214;2023-05-15T08:06:41;2.92;;;2.33;;
793;SDS011;380;48.738;9.214;2023-05-15T08:09:07;2.88;;;2.20;;
793;SDS011;380;48.738;9.214;2023-05-15T08:11:34;3.50;;;2.70;;
793;SDS011;380;48.738;9.214;2023-05-15T08:14:00;3.83;;;2.60;;
793;SDS011;380;48.738;9.214;2023-05-15T08:16:26;3.33;;;2.05;;
793;SDS011;380;48.738;9.214;2023-05-15T08:18:52;3.83;;;2.38;;
793;SDS011;380;48.738;9.214;2023-05-15T08:21:22;4.78;;;2.35;;
793;SDS011;380;48.738;9.214;2023-05-15T08:23:48;2.83;;;2.30;;
793;SDS011;380;48.738;9.214;2023-05-15T08:26:14;3.25;;;1.95;;
793;SDS011;380;48.738;9.214;2023-05-15T08:28:40;5.35;;;2.50;;
793;SDS011;380;48.738;9.214;2023-05-15T08:31:06;3.08;;;2.60;;
793;SDS011;380;48.738;9.214;2023-05-15T08:33:32;3.97;;;2.63;;
793;SDS011;380;48.738;9.214;2023-05-15T08:35:58;3.20;;;2.47;;
793;SDS011;380;48.738;9.214;2023-05-15T08:38:23;3.70;;;2.95;;
793;SDS011;380;48.738;9.214;2023-05-15T08:40:49;3.72;;;2.80;;
793;SDS011;380;48.738;9.214;2023-05-15T08:43:17;3.08;;;2.50;;
793;SDS011;380;48.738;9.214;2023-05-15T08:45:45;2.80;;;1.90;;
793;SDS011;380;48.738;9.214;2023-05-15T08:48:13;4.97;;;2.75;;
793;SDS011;380;48.738;9.214;2023-05-15T08:50:40;2.88;;;2.45;;
793;SDS011;380;48.738;9.214;2023-05-15T08:53:08;2.92;;;2.17;;
793;SDS011;380;48.738;9.214;2023-05-15T08:55:34;3.00;;;2.05;;
793;SDS011;380;48.738;9.214;2023-05-15T08:58:00;3.70;;;2.80;;
793;SDS011;380;48.738;9.214;2023-05-15T09:00:26;4.57;;;2.60;;
793;SDS011;380;48.738;9.214;2023-05-15T09:02:52;2.78;;;2.20;;
793;SDS011;380;48.738;9.214;2023-05-15T09:05:18;3.45;;;2.92;;
793;SDS011;380;48.738;9.214;2023-05-15T09:07:44;3.28;;;2.47;;
793;SDS011;380;48.738;9.214;2023-05-15T09:10:11;3.50;;;2.70;;
793;SDS011;380;48.738;9.214;2023-05-15T09:12:40;3.20;;;2.80;;
793;SDS011;380;48.738;9.214;2023-05-15T09:15:11;4.00;;;2.92;;
793;SDS011;380;48.738;9.214;2023-05-15T09:17:37;3.78;;;2.95;;
793;SDS011;380;48.738;9.214;2023-05-15T09:20:04;3.95;;;2.60;;
793;SDS011;380;48.738;9.214;2023-05-15T09:22:32;3.28;;;2.35;;
793;SDS011;380;48.738;9.214;2023-05-15T09:24:59;4.10;;;2.60;;
793;SDS011;380;48.738;9.214;2023-05-15T09:27:27;4.00;;;3.03;;
793;SDS011;380;48.738;9.214;2023-05-15T09:29:53;3.42;;;2.53;;
793;SDS011;380;48.738;9.214;2023-05-15T09:32:20;3.30;;;2.50;;
793;SDS011;380;48.738;9.214;2023-05-15T09:34:46;3.92;;;3.10;;
793;SDS011;380;48.738;9.214;2023-05-15T09:37:29;3.47;;;2.75;;
793;SDS011;380;48.738;9.214;2023-05-15T09:39:56;3.55;;;2.88;;
793;SDS011;380;48.738;9.214;2023-05-15T09:42:33;3.35;;;2.80;;
793;SDS011;380;48.738;9.214;2023-05-15T09:45:00;3.33;;;3.00;;
793;SDS011;380;48.738;9.214;2023-05-15T09:47:27;3.25;;;2.45;;
793;SDS011;380;48.738;9.214;2023-05-15T09:49:52;4.75;;;3.35;;
793;SDS011;380;48.738;9.214;2023-05-15T09:52:18;3.78;;;3.00;;
793;SDS011;380;48.738;9.214;2023-05-15T09:54:47;3.28;;;2.63;;
793;SDS011;380;48.738;9.214;2023-05-15T09:57:14;3.55;;;2.60;;
793;SDS011;380;48.738;9.214;2023-05-15T09:59:42;3.75;;;3.03;;
793;SDS011;380;48.738;9.214;2023-05-15T10:02:11;3.03;;;2.35;;
793;SDS011;380;48.738;9.214;2023-05-15T10:04:37;3.25;;;2.58;;
793;SDS011;380;48.738;9.214;2023-05-15T10:07:05;3.10;;;2.28;;
793;SDS011;380;48.738;9.214;2023-05-15T10:09:33;4.28;;;2.70;;
793;SDS011;380;48.738;9.214;2023-05-15T10:11:59;3.30;;;2.17;;
793;SDS011;380;48.738;9.214;2023-05-15T10:14:25;3.08;;;2.55;;
793;SDS011;380;48.738;9.214;2023-05-15T10:16:51;4.25;;;2.80;;
793;SDS011;380;48.738;9.214;2023-05-15T10:19:17;3.88;;;2.83;;
793;SDS011;380;48.738;9.214;2023-05-15T10:21:44;3.63;;;2.67;;
793;SDS011;380;48.738;9.214;2023-05-15T10:24:10;3.60;;;2.13;;
793;SDS011;380;48.738;9.214;2023-05-15T10:26:37;3.20;;;2.35;;
793;SDS011;380;48.738;9.214;2023-05-15T10:29:04;7.25;;;2.38;;
793;SDS011;380;48.738;9.214;2023-05-15T10:31:31;2.85;;;2.25;;
793;SDS011;380;48.738;9.214;2023-05-15T10:33:57;3.25;;;2.47;;
793;SDS011;380;48.738;9.214;2023-05-15T10:36:24;3.20;;;2.47;;
793;SDS011;380;48.738;9.214;2023-05-15T10:38:50;3.38;;;2.28;;
793;SDS011;380;48.738;9.214;2023-05-15T10:41:16;3.63;;;2.63;;
793;SDS011;380;48.738;9.214;2023-05-15T10:43:45;3.03;;;2.25;;
793;SDS011;380;48.738;9.214;2023-05-15T10:46:12;3.15;;;2.35;;
793;SDS011;380;48.738;9.214;2023-05-15T10:48:38;2.97;;;2.20;;
793;SDS011;380;48.738;9.214;2023-05-15T10:51:04;2.80;;;2.40;;
793;SDS011;380;48.738;9.214;2023-05-15T10:53:37;3.35;;;2.50;;
793;SDS011;380;48.738;9.214;2023-05-15T10:56:04;2.83;;;2.17;;
793;SDS011;380;48.738;9.214;2023-05-15T10:58:30;3.53;;;2.28;;
793;SDS011;380;48.738;9.214;2023-05-15T11:00:58;2.58;;;1.90;;
793;SDS011;380;48.738;9.214;2023-05-15T11:03:34;2.80;;;2.33;;
793;SDS011;380;48.738;9.214;2023-05-15T11:06:10;5.80;;;1.70;;
793;SDS011;380;48.738;9.214;2023-05-15T11:08:40;3.55;;;2.28;;
793;SDS011;380;48.738;9.214;2023-05-15T11:11:07;2.35;;;1.77;;
793;SDS011;380;48.738;9.214;2023-05-15T11:16:55;3.17;;;1.58;;
793;SDS011;380;48.738;9.214;2023-05-15T11:19:30;3.25;;;1.92;;
793;SDS011;380;48.738;9.214;2023-05-15T11:27:17;3.63;;;1.98;;
793;SDS011;380;48.738;9.214;2023-05-15T11:35:25;1.90;;;1.52;;
793;SDS011;380;48.738;9.214;2023-05-15T11:37:52;3.05;;;2.08;;
793;SDS011;380;48.738;9.214;2023-05-15T11:40:20;3.67;;;2.17;;
793;SDS011;380;48.738;9.214;2023-05-15T11:43:09;3.30;;;2.33;;
793;SDS011;380;48.738;9.214;2023-05-15T11:45:41;3.85;;;2.05;;
793;SDS011;380;48.738;9.214;2023-05-15T11:48:11;3.10;;;2.08;;
793;SDS011;380;48.738;9.214;2023-05-15T11:50:38;2.78;;;2.20;;
793;SDS011;380;48.738;9.214;2023-05-15T11:53:05;2.40;;;1.65;;
793;SDS011;380;48.738;9.214;2023-05-15T11:55:32;3.92;;;1.98;;
793;SDS011;380;48.738;9.214;2023-05-15T11:57:59;2.97;;;1.90;;
793;SDS011;380;48.738;9.214;2023-05-15T12:00:25;2.92;;;1.65;;
793;SDS011;380;48.738;9.214;2023-05-15T12:02:51;2.38;;;1.70;;
793;SDS011;380;48.738;9.214;2023-05-15T12:05:17;2.47;;;1.80;;
793;SDS011;380;48.738;9.214;2023-05-15T12:07:43;2.55;;;1.52;;
793;SDS011;380;48.738;9.214;2023-05-15T12:10:11;3.67;;;2.13;;
793;SDS011;380;48.738;9.214;2023-05-15T12:12:44;2.70;;;2.08;;
793;SDS011;380;48.738;9.214;2023-05-15T12:15:10;4.25;;;2.15;;
793;SDS011;380;48.738;9.214;2023-05-15T12:17:37;3.55;;;1.92;;
793;SDS011;380;48.738;9.214;2023-05-15T12:20:07;2.67;;;1.80;;
793;SDS011;380;48.738;9.214;2023-05-15T12:22:39;2.70;;;1.70;;
793;SDS011;380;48.738;9.214;2023-05-15T12:25:09;2.80;;;1.90;;
793;SDS011;380;48.738;9.214;2023-05-15T12:27:36;3.28;;;2.17;;
793;SDS011;380;48.738;9.214;2023-05-15T12:30:02;2.70;;;1.90;;
793;SDS011;380;48.738;9.214;2023-05-15T12:32:32;3.15;;;2.05;;
793;SDS011;380;48.738;9.214;2023-05-15T12:35:02;6.60;;;2.55;;
793;SDS011;380;48.738;9.214;2023-05-15T12:37:32;8.35;;;2.42;;
793;SDS011;380;48.738;9.214;2023-05-15T12:42:25;3.17;;;2.08;;
793;SDS011;380;48.738;9.214;2023-05-15T12:44:51;3.25;;;2.20;;
793;SDS011;380;48.738;9.214;2023-05-15T12:47:21;2.90;;;2.30;;
793;SDS011;380;48.738;9.214;2023-05-15T12:49:47;3.60;;;2.17;;
793;SDS011;380;48.738;9.214;2023-05-15T12:52:13;2.47;;;1.75;;
793;SDS011;380;48.738;9.214;2023-05-15T12:54:40;2.35;;;1.60;;
793;SDS011;380;48.738;9.214;2023-05-15T12:57:07;2.58;;;1.75;;
793;SDS011;380;48.738;9.214;2023-05-15T12:59:33;2.17;;;1.60;;
793;SDS011;380;48.738;9.214;2023-05-15T13:01:59;2.55;;;1.83;;
793;SDS011;380;48.738;9.214;2023-05-15T13:04:25;2.38;;;1.92;;
793;SDS011;380;48.738;9.214;2023-05-15T13:06:51;2.50;;;1.95;;
793;SDS011;380;48.738;9.214;2023-05-15T13:09:21;2.65;;;1.75;;
793;SDS011;380;48.738;9.214;2023-05-15T13:11:47;4.10;;;2.10;;
793;SDS011;380;48.738;9.214;2023-05-15T13:14:16;2.75;;;2.08;;
793;SDS011;380;48.738;9.214;2023-05-15T13:16:43;2.70;;;2.00;;
793;SDS011;380;48.738;9.214;2023-05-15T13:19:10;2.80;;;1.75;;
793;SDS011;380;48.738;9.214;2023-05-15T13:21:36;2.63;;;1.90;;
793;SDS011;380;48.738;9.214;2023-05-15T13:24:02;2.50;;;1.80;;
793;SDS011;380;48.738;9.214;2023-05-15T13:26:28;4.82;;;1.90;;
793;SDS011;380;48.738;9.214;2023-05-15T13:28:54;3.10;;;2.17;;
793;SDS011;380;48.738;9.214;2023-05-15T13:31:20;4.65;;;2.20;;
793;SDS011;380;48.738;9.214;2023-05-15T13:33:46;2.10;;;1.52;;
793;SDS011;380;48.738;9.214;2023-05-15T13:36:12;3.63;;;2.10;;
793;SDS011;380;48.738;9.214;2023-05-15T13:38:38;2.70;;;1.77;;
793;SDS011;380;48.738;9.214;2023-05-15T13:41:05;3.63;;;2.22;;
793;SDS011;380;48.738;9.214;2023-05-15T13:43:31;4.20;;;1.90;;
793;SDS011;380;48.738;9.214;2023-05-15T13:45:57;3.08;;;2.30;;
793;SDS011;380;48.738;9.214;2023-05-15T13:48:23;3.20;;;2.17;;
793;SDS011;380;48.738;9.214;2023-05-15T13:50:49;3.85;;;2.50;;
793;SDS011;380;48.738;9.214;2023-05-15T13:53:15;4.03;;;2.53;;
793;SDS011;380;48.738;9.214;2023-05-15T13:55:44;4.15;;;2.72;;
793;SDS011;380;48.738;9.214;2023-05-15T13:58:10;4.30;;;3.38;;
793;SDS011;380;48.738;9.214;2023-05-15T14:00:37;3.78;;;2.63;;
793;SDS011;380;48.738;9.214;2023-05-15T14:03:03;3.50;;;2.60;;
793;SDS011;380;48.738;9.214;2023-05-15T14:05:30;3.08;;;2.55;;
793;SDS011;380;48.738;9.214;2023-05-15T14:07:56;2.83;;;2.40;;
793;SDS011;380;48.738;9.214;2023-05-15T14:10:22;2.80;;;2.40;;
793;SDS011;380;48.738;9.214;2023-05-15T14:12:48;3.45;;;3.10;;
793;SDS011;380;48.738;9.214;2023-05-15T14:15:14;3.55;;;3.10;;
793;SDS011;380;48.738;9.214;2023-05-15T14:17:41;5.25;;;3.17;;
793;SDS011;380;48.738;9.214;2023-05-15T14:20:08;3.80;;;2.95;;
793;SDS011;380;48.738;9.214;2023-05-15T14:22:35;3.95;;;3.08;;
793;SDS011;380;48.738;9.214;2023-05-15T14:25:01;3.25;;;2.70;;
793;SDS011;380;48.738;9.214;2023-05-15T14:27:27;3.38;;;2.90;;
793;SDS011;380;48.738;9.214;2023-05-15T14:29:54;3.55;;;2.47;;
793;SDS011;380;48.738;9.214;2023-05-15T14:32:20;4.70;;;3.00;;
793;SDS011;380;48.738;9.214;2023-05-15T14:34:46;3.58;;;2.95;;
793;SDS011;380;48.738;9.214;2023-05-15T14:37:12;4.35;;;2.95;;
793;SDS011;380;48.738;9.214;2023-05-15T14:39:38;3.47;;;2.95;;
793;SDS011;380;48.738;9.214;2023-05-15T14:42:04;4.90;;;2.58;;
793;SDS011;380;48.738;9.214;2023-05-15T14:44:31;3.38;;;2.28;;
793;SDS011;380;48.738;9.214;2023-05-15T14:47:09;2.70;;;1.85;;
793;SDS011;380;48.738;9.214;2023-05-15T14:49:36;2.40;;;2.00;;
793;SDS011;380;48.738;9.214;2023-05-15T14:52:04;3.15;;;2.05;;
793;SDS011;380;48.738;9.214;2023-05-15T14:54:30;3.40;;;2.75;;
793;SDS011;380;48.738;9.214;2023-05-15T14:56:56;5.38;;;2.95;;
793;SDS011;380;48.738;9.214;2023-05-15T14:59:22;2.95;;;2.17;;
793;SDS011;380;48.738;9.214;2023-05-15T15:01:48;3.20;;;2.22;;
793;SDS011;380;48.738;9.214;2023-05-15T15:04:14;2.97;;;2.30;;
793;SDS011;380;48.738;9.214;2023-05-15T15:06:40;3.28;;;2.42;;
793;SDS011;380;48.738;9.214;2023-05-15T15:09:06;3.28;;;2.67;;
793;SDS011;380;48.738;9.214;2023-05-15T15:11:32;3.67;;;2.95;;
793;SDS011;380;48.738;9.214;2023-05-15T15:13:58;2.83;;;2.25;;
793;SDS011;380;48.738;9.214;2023-05-15T15:16:24;4.07;;;2.85;;
793;SDS011;380;48.738;9.214;2023-05-15T15:18:50;3.63;;;3.08;;
793;SDS011;380;48.738;9.214;2023-05-15T15:21:16;4.10;;;2.63;;
793;SDS011;380;48.738;9.214;2023-05-15T15:23:42;3.70;;;2.80;;
793;SDS011;380;48.738;9.214;2023-05-15T15:26:09;3.88;;;2.72;;
793;SDS011;380;48.738;9.214;2023-05-15T15:28:35;3.47;;;2.67;;
793;SDS011;380;48.738;9.214;2023-05-15T15:31:01;2.90;;;2.28;;
793;SDS011;380;48.738;9.214;2023-05-15T15:33:27;3.47;;;2.35;;
793;SDS011;380;48.738;9.214;2023-05-15T15:35:54;3.15;;;2.03;;
793;SDS011;380;48.738;9.214;2023-05-15T15:38:20;2.67;;;1.85;;
793;SDS011;380;48.738;9.214;2023-05-15T15:40:46;3.58;;;1.98;;
793;SDS011;380;48.738;9.214;2023-05-15T15:43:12;3.22;;;2.00;;
793;SDS011;380;48.738;9.214;2023-05-15T15:45:38;2.42;;;1.70;;
793;SDS011;380;48.738;9.214;2023-05-15T15:48:04;4.78;;;1.98;;
793;SDS011;380;48.738;9.214;2023-05-15T15:50:30;2.38;;;1.63;;
793;SDS011;380;48.738;9.214;2023-05-15T15:52:56;4.00;;;2.33;;
793;SDS011;380;48.738;9.214;2023-05-15T15:55:22;3.70;;;2.55;;
793;SDS011;380;48.738;9.214;2023-05-15T15:57:48;3.17;;;2.58;;
793;SDS011;380;48.738;9.214;2023-05-15T16:00:14;3.38;;;2.42;;
793;SDS011;380;48.738;9.214;2023-05-15T16:02:40;3.75;;;2.63;;
793;SDS011;380;48.738;9.214;2023-05-15T16:05:06;3.42;;;2.90;;
793;SDS011;380;48.738;9.214;2023-05-15T16:07:32;3.67;;;3.22;;
793;SDS011;380;48.738;9.214;2023-05-15T16:09:59;3.72;;;3.05;;